Time;durP1;ratioP1;P1;durP2;ratioP2;P2;SDS_P1;SDS_P2;PMS_P1;PMS_P2;Temp;Humidity;BMP_temperature;BMP_pressure;BME280_temperature;BME280_humidity;BME280_pressure;Samples;Min_cycle;Max_cycle;Signal;HPM_P1;HPM_P2
2024/04/01 00:01:21;;;;;;;;;3.33;2.67;;;;;;;;5100272;27;45354;-53
2024/04/01 00:03:46;;;;;;;;;4.00;4.00;;;;;;;;5100170;27;45398;-53
2024/04/01 00:06:12;;;;;;;;;3.00;3.00;;;;;;;;5100203;27;45414;-50
2024/04/01 00:08:37;;;;;;;;;4.67;4.67;;;;;;;;5097819;27;45201;-52
2024/04/01 00:11:02;;;;;;;;;3.00;3.00;;;;;;;;5100151;27;45349;-53
2024/04/01 00:13:28;;;;;;;;;4.00;4.00;;;;;;;;5098061;27;45247;-49
2024/04/01 00:15:53;;;;;;;;;4.00;4.00;;;;;;;;5097988;27;45260;-52
2024/04/01 00:18:18;;;;;;;;;6.67;4.33;;;;;;;;5097269;27;46293;-51
2024/04/01 00:20:54;;;;;;;;;4.33;4.33;;;;;;;;5100245;27;45205;-52
2024/04/01 00:23:19;;;;;;;;;2.33;2.33;;;;;;;;5095697;27;45314;-51
2024/04/01 00:25:44;;;;;;;;;2.00;2.00;;;;;;;;5098388;27;45280;-49
2024/04/01 00:28:09;;;;;;;;;3.00;3.00;;;;;;;;5095230;27;46419;-50
2024/04/01 00:30:35;;;;;;;;;4.67;3.67;;;;;;;;5100329;27;45447;-52
2024/04/01 00:33:00;;;;;;;;;4.67;3.00;;;;;;;;5096858;27;45294;-51
2024/04/01 00:35:25;;;;;;;;;3.00;2.00;;;;;;;;5100234;27;45477;-52
2024/04/01 00:37:50;;;;;;;;;2.00;2.00;;;;;;;;5098266;27;46244;-50
2024/04/01 00:40:15;;;;;;;;;5.67;3.00;;;;;;;;5099730;27;45558;-53
2024/04/01 00:42:41;;;;;;;;;4.00;2.00;;;;;;;;5097307;27;45564;-51
2024/04/01 00:45:09;;;;;;;;;4.00;4.00;;;;;;;;5099555;27;45580;-52
2024/04/01 00:47:34;;;;;;;;;5.67;4.00;;;;;;;;5098633;27;46472;-53
2024/04/01 00:49:59;;;;;;;;;4.00;4.00;;;;;;;;5099972;27;45688;-49
2024/04/01 00:52:26;;;;;;;;;3.33;3.33;;;;;;;;5099563;27;45308;-50
2024/04/01 00:54:52;;;;;;;;;5.33;4.00;;;;;;;;5100168;27;45473;-52
2024/04/01 00:57:19;;;;;;;;;2.00;2.00;;;;;;;;5097706;27;45355;-52
2024/04/01 00:59:44;;;;;;;;;4.33;3.00;;;;;;;;5099006;27;45244;-51
2024/04/01 01:02:12;;;;;;;;;4.67;4.33;;;;;;;;5099291;27;45505;-53
2024/04/01 01:04:37;;;;;;;;;5.00;4.00;;;;;;;;5099680;27;45363;-52
2024/04/01 01:07:02;;;;;;;;;6.00;6.00;;;;;;;;5099040;27;45357;-53
2024/04/01 01:09:28;;;;;;;;;5.00;4.00;;;;;;;;5078951;27;45454;-51
2024/04/01 01:11:53;;;;;;;;;5.00;5.00;;;;;;;;5086836;27;45342;-52
2024/04/01 01:14:18;;;;;;;;;7.00;3.00;;;;;;;;5099279;27;45252;-51
2024/04/01 01:16:44;;;;;;;;;4.00;3.00;;;;;;;;5095439;27;46522;-52
2024/04/01 01:19:10;;;;;;;;;3.00;3.00;;;;;;;;5097270;27;45394;-52
2024/04/01 01:21:35;;;;;;;;;4.67;4.67;;;;;;;;5097249;27;45410;-49
2024/04/01 01:24:01;;;;;;;;;4.00;4.00;;;;;;;;5099713;27;45528;-51
2024/04/01 01:26:26;;;;;;;;;4.00;4.00;;;;;;;;5097107;27;45454;-52
2024/04/01 01:28:52;;;;;;;;;4.33;4.33;;;;;;;;5099437;27;45369;-53
2024/04/01 01:31:18;;;;;;;;;4.00;4.00;;;;;;;;5099116;27;45394;-52
2024/04/01 01:33:43;;;;;;;;;5.00;5.00;;;;;;;;5099307;27;45348;-50
2024/04/01 01:36:08;;;;;;;;;4.00;4.00;;;;;;;;5096622;27;45542;-51
2024/04/01 01:38:34;;;;;;;;;4.33;4.33;;;;;;;;5097146;27;45354;-50
2024/04/01 01:40:59;;;;;;;;;3.67;3.67;;;;;;;;5097360;27;45387;-51
2024/04/01 01:43:24;;;;;;;;;7.33;5.00;;;;;;;;5098506;27;45534;-50
2024/04/01 01:45:49;;;;;;;;;5.33;4.67;;;;;;;;5094795;27;46887;-52
2024/04/01 01:48:14;;;;;;;;;5.00;5.00;;;;;;;;5096274;27;45448;-49
2024/04/01 01:50:40;;;;;;;;;6.67;5.00;;;;;;;;5079316;27;45246;-51
2024/04/01 01:53:05;;;;;;;;;4.67;4.67;;;;;;;;5098397;27;45278;-51
2024/04/01 01:55:30;;;;;;;;;6.67;6.00;;;;;;;;5080643;27;46479;-50
2024/04/01 01:57:55;;;;;;;;;6.67;6.00;;;;;;;;5097266;27;45345;-53
2024/04/01 02:00:20;;;;;;;;;8.33;7.67;;;;;;;;5095763;27;45391;-53
2024/04/01 02:02:46;;;;;;;;;6.00;6.00;;;;;;;;5098370;27;45243;-53
2024/04/01 02:05:11;;;;;;;;;5.00;5.00;;;;;;;;5096345;27;46590;-50
2024/04/01 02:07:36;;;;;;;;;4.00;4.00;;;;;;;;5096454;27;45492;-48
2024/04/01 02:10:02;;;;;;;;;2.67;2.00;;;;;;;;5101036;27;45370;-51
2024/04/01 02:12:27;;;;;;;;;2.00;2.00;;;;;;;;5098080;27;45313;-52
2024/04/01 02:14:52;;;;;;;;;5.00;4.00;;;;;;;;5099599;27;46434;-53
2024/04/01 02:17:17;;;;;;;;;3.67;2.00;;;;;;;;5101977;27;45479;-52
2024/04/01 02:19:46;;;;;;;;;4.00;2.00;;;;;;;;5101801;27;45267;-52
2024/04/01 02:22:16;;;;;;;;;8.67;4.00;;;;;;;;5082144;27;45436;-52
2024/04/01 02:24:42;;;;;;;;;3.33;2.33;;;;;;;;5099467;27;46191;-51
2024/04/01 02:27:09;;;;;;;;;2.67;2.00;;;;;;;;5099209;27;45413;-52
2024/04/01 02:29:34;;;;;;;;;2.00;2.00;;;;;;;;5099573;27;45483;-53
2024/04/01 02:31:59;;;;;;;;;3.00;2.67;;;;;;;;5100261;27;46372;-52
2024/04/01 02:34:24;;;;;;;;;2.00;2.00;;;;;;;;5101473;27;45359;-53
2024/04/01 02:36:49;;;;;;;;;3.67;2.00;;;;;;;;5102165;27;45447;-52
2024/04/01 02:39:18;;;;;;;;;2.00;2.00;;;;;;;;5101886;27;45312;-49
2024/04/01 02:41:46;;;;;;;;;2.00;2.00;;;;;;;;5090954;27;45406;-52
2024/04/01 02:44:12;;;;;;;;;1.00;1.00;;;;;;;;5099255;27;48239;-51
2024/04/01 02:46:37;;;;;;;;;4.00;2.33;;;;;;;;5102061;27;45441;-52
2024/04/01 02:49:04;;;;;;;;;3.67;2.00;;;;;;;;5099612;27;45318;-52
2024/04/01 02:51:29;;;;;;;;;2.00;2.00;;;;;;;;5100577;27;45410;-51
2024/04/01 02:53:54;;;;;;;;;1.33;1.33;;;;;;;;5099779;27;46220;-52
2024/04/01 02:56:20;;;;;;;;;2.00;2.00;;;;;;;;5100077;27;45396;-50
2024/04/01 02:58:45;;;;;;;;;2.00;2.00;;;;;;;;5101687;27;45351;-51
2024/04/01 03:01:11;;;;;;;;;2.00;2.00;;;;;;;;5101541;27;45318;-50
2024/04/01 03:03:36;;;;;;;;;3.33;2.00;;;;;;;;5098905;27;45536;-52
2024/04/01 03:06:01;;;;;;;;;2.00;2.00;;;;;;;;5101351;27;45380;-51
2024/04/01 03:08:26;;;;;;;;;3.00;1.33;;;;;;;;5101640;27;45682;-51
2024/04/01 03:11:01;;;;;;;;;1.00;1.00;;;;;;;;5101696;27;45454;-53
2024/04/01 03:13:27;;;;;;;;;2.00;2.00;;;;;;;;5098713;27;45283;-52
2024/04/01 03:15:55;;;;;;;;;2.00;2.00;;;;;;;;5099959;27;45334;-53
2024/04/01 03:18:21;;;;;;;;;1.00;1.00;;;;;;;;5100971;27;45368;-52
2024/04/01 03:20:47;;;;;;;;;1.67;1.67;;;;;;;;5098234;27;45347;-51
2024/04/01 03:23:16;;;;;;;;;3.00;1.00;;;;;;;;5080196;27;45393;-52
2024/04/01 03:25:41;;;;;;;;;0.00;0.00;;;;;;;;5099243;27;45409;-52
2024/04/01 03:28:06;;;;;;;;;1.00;1.00;;;;;;;;5098390;27;45259;-53
2024/04/01 03:30:32;;;;;;;;;1.00;1.00;;;;;;;;5101420;27;45267;-52
2024/04/01 03:32:57;;;;;;;;;1.00;1.00;;;;;;;;5098501;27;45631;-52
2024/04/01 03:35:22;;;;;;;;;1.00;1.00;;;;;;;;5100660;27;45509;-52
2024/04/01 03:37:48;;;;;;;;;1.67;0.00;;;;;;;;5096724;27;45351;-52
2024/04/01 03:40:13;;;;;;;;;1.00;1.00;;;;;;;;5100812;27;45370;-52
2024/04/01 03:42:38;;;;;;;;;2.00;2.00;;;;;;;;5100840;27;46803;-52
2024/04/01 03:45:06;;;;;;;;;1.00;1.00;;;;;;;;5100291;27;45375;-51
2024/04/01 03:47:31;;;;;;;;;1.00;1.00;;;;;;;;5096999;27;45475;-52
2024/04/01 03:49:56;;;;;;;;;2.00;2.00;;;;;;;;5106167;27;45321;-53
2024/04/01 03:52:22;;;;;;;;;2.33;1.67;;;;;;;;5098507;27;45518;-52
2024/04/01 03:54:47;;;;;;;;;3.00;2.00;;;;;;;;5082734;27;45534;-53
2024/04/01 03:57:13;;;;;;;;;2.00;2.00;;;;;;;;5100297;27;45295;-52
2024/04/01 03:59:38;;;;;;;;;2.00;2.00;;;;;;;;5098870;27;45504;-49
2024/04/01 04:02:06;;;;;;;;;2.00;2.00;;;;;;;;5098224;27;45652;-52
2024/04/01 04:04:31;;;;;;;;;4.00;1.33;;;;;;;;5099120;27;45212;-52
2024/04/01 04:06:57;;;;;;;;;2.00;2.00;;;;;;;;5100777;27;45267;-52
2024/04/01 04:09:22;;;;;;;;;3.00;1.33;;;;;;;;5100428;27;45481;-52
2024/04/01 04:11:50;;;;;;;;;2.67;2.00;;;;;;;;5096070;27;45192;-53
2024/04/01 04:14:19;;;;;;;;;3.00;3.00;;;;;;;;5099527;27;45586;-52
2024/04/01 04:16:45;;;;;;;;;3.67;2.00;;;;;;;;5095614;27;45595;-52
2024/04/01 04:19:10;;;;;;;;;2.00;1.00;;;;;;;;5089241;27;45329;-50
2024/04/01 04:21:35;;;;;;;;;3.00;1.67;;;;;;;;5098626;27;47405;-50
2024/04/01 04:24:01;;;;;;;;;2.00;2.00;;;;;;;;5098247;27;45404;-52
2024/04/01 04:26:26;;;;;;;;;2.00;2.00;;;;;;;;5096168;27;45229;-52
2024/04/01 04:28:51;;;;;;;;;3.00;2.00;;;;;;;;5098051;27;45191;-52
2024/04/01 04:31:16;;;;;;;;;1.00;1.00;;;;;;;;5098047;27;45451;-52
2024/04/01 04:33:41;;;;;;;;;2.00;2.00;;;;;;;;5099288;27;45219;-53
2024/04/01 04:36:06;;;;;;;;;3.00;2.00;;;;;;;;5079961;27;45327;-52
2024/04/01 04:38:32;;;;;;;;;1.00;1.00;;;;;;;;5098883;27;45524;-51
2024/04/01 04:40:57;;;;;;;;;1.33;1.33;;;;;;;;5097374;27;46056;-51
2024/04/01 04:43:22;;;;;;;;;1.00;1.00;;;;;;;;5097987;27;45326;-50
2024/04/01 04:45:48;;;;;;;;;2.67;2.00;;;;;;;;5098953;27;45514;-50
2024/04/01 04:48:14;;;;;;;;;1.00;1.00;;;;;;;;5099776;27;45480;-52
2024/04/01 04:50:39;;;;;;;;;1.00;1.00;;;;;;;;5098510;27;46218;-50
2024/04/01 04:53:04;;;;;;;;;1.33;1.33;;;;;;;;5099286;27;45203;-52
2024/04/01 04:55:29;;;;;;;;;0.00;0.00;;;;;;;;5099484;27;45382;-51
2024/04/01 04:57:54;;;;;;;;;1.00;1.00;;;;;;;;5099724;27;45220;-53
2024/04/01 05:00:22;;;;;;;;;1.00;1.00;;;;;;;;5099021;27;45462;-53
2024/04/01 05:02:48;;;;;;;;;2.33;2.00;;;;;;;;5099909;27;45413;-51
2024/04/01 05:05:17;;;;;;;;;1.00;1.00;;;;;;;;5099085;27;45352;-52
2024/04/01 05:07:44;;;;;;;;;2.00;1.00;;;;;;;;5099779;27;45231;-53
2024/04/01 05:10:09;;;;;;;;;1.00;1.00;;;;;;;;5097275;27;46271;-52
2024/04/01 05:12:34;;;;;;;;;1.67;1.00;;;;;;;;5095690;27;45625;-53
2024/04/01 05:14:59;;;;;;;;;1.00;1.00;;;;;;;;5077192;27;45330;-50
2024/04/01 05:17:25;;;;;;;;;1.33;1.33;;;;;;;;5098112;27;45477;-52
2024/04/01 05:19:50;;;;;;;;;1.00;1.00;;;;;;;;5095797;27;46113;-52
2024/04/01 05:22:15;;;;;;;;;1.00;1.00;;;;;;;;5097740;27;45332;-53
2024/04/01 05:24:40;;;;;;;;;2.00;1.00;;;;;;;;5097550;27;45437;-51
2024/04/01 05:27:06;;;;;;;;;2.00;2.00;;;;;;;;5099311;27;45872;-50
2024/04/01 05:29:31;;;;;;;;;4.00;2.00;;;;;;;;5099123;27;45552;-51
2024/04/01 05:31:56;;;;;;;;;1.00;1.00;;;;;;;;5097519;27;45519;-50
2024/04/01 05:34:24;;;;;;;;;1.00;1.00;;;;;;;;5098768;27;45275;-51
2024/04/01 05:36:49;;;;;;;;;3.33;1.67;;;;;;;;5099560;27;45370;-53
2024/04/01 05:39:14;;;;;;;;;0.67;0.00;;;;;;;;5096497;27;45559;-51
2024/04/01 05:41:39;;;;;;;;;2.00;2.00;;;;;;;;5078316;27;45356;-50
2024/04/01 05:44:04;;;;;;;;;2.00;1.00;;;;;;;;5098619;27;45495;-52
2024/04/01 05:46:29;;;;;;;;;2.00;1.00;;;;;;;;5100599;27;45494;-50
2024/04/01 05:48:54;;;;;;;;;1.00;1.00;;;;;;;;5101333;27;45462;-52
2024/04/01 05:51:20;;;;;;;;;2.00;1.00;;;;;;;;5101149;27;45673;-50
2024/04/01 05:53:45;;;;;;;;;4.00;1.00;;;;;;;;5101289;27;45261;-50
2024/04/01 05:56:10;;;;;;;;;1.00;1.00;;;;;;;;5100190;27;45395;-51
2024/04/01 05:58:36;;;;;;;;;1.00;1.00;;;;;;;;5101286;27;47120;-53
2024/04/01 06:01:01;;;;;;;;;1.33;0.00;;;;;;;;5100452;27;45304;-51
2024/04/01 06:03:26;;;;;;;;;1.00;1.00;;;;;;;;5101469;27;45208;-52
2024/04/01 06:05:52;;;;;;;;;1.00;1.00;;;;;;;;5102408;27;46064;-52
2024/04/01 06:08:17;;;;;;;;;1.00;1.00;;;;;;;;5099426;27;46554;-52
2024/04/01 06:10:42;;;;;;;;;0.00;0.00;;;;;;;;5102305;27;45282;-52
2024/04/01 06:13:07;;;;;;;;;1.00;1.00;;;;;;;;5099928;27;45390;-52
2024/04/01 06:15:32;;;;;;;;;2.33;1.00;;;;;;;;5083761;27;45297;-51
2024/04/01 06:17:58;;;;;;;;;0.67;0.67;;;;;;;;5102654;27;45250;-52
2024/04/01 06:20:23;;;;;;;;;2.67;1.00;;;;;;;;5098051;27;45173;-53
2024/04/01 06:22:48;;;;;;;;;1.33;1.00;;;;;;;;5101704;27;45573;-52
2024/04/01 06:25:13;;;;;;;;;0.00;0.00;;;;;;;;5081997;27;45680;-53
2024/04/01 06:27:39;;;;;;;;;0.33;0.33;;;;;;;;5100986;27;46573;-52
2024/04/01 06:30:04;;;;;;;;;0.33;0.33;;;;;;;;5101424;27;45591;-53
2024/04/01 06:32:29;;;;;;;;;0.00;0.00;;;;;;;;5102429;27;45216;-51
2024/04/01 06:34:54;;;;;;;;;2.00;1.00;;;;;;;;5100850;27;45302;-52
2024/04/01 06:37:19;;;;;;;;;0.00;0.00;;;;;;;;5100771;27;45537;-49
2024/04/01 06:39:45;;;;;;;;;1.00;1.00;;;;;;;;5101026;27;45236;-49
2024/04/01 06:42:10;;;;;;;;;0.00;0.00;;;;;;;;5101033;27;45335;-53
2024/04/01 06:44:36;;;;;;;;;0.00;0.00;;;;;;;;5083470;27;45460;-53
2024/04/01 06:47:01;;;;;;;;;1.00;1.00;;;;;;;;5101359;27;45457;-51
2024/04/01 06:49:26;;;;;;;;;1.67;0.33;;;;;;;;5101439;27;45302;-53
2024/04/01 06:51:52;;;;;;;;;2.00;1.00;;;;;;;;5101567;27;45397;-52
2024/04/01 06:54:17;;;;;;;;;0.67;0.00;;;;;;;;5100420;27;45401;-53
2024/04/01 06:56:42;;;;;;;;;0.00;0.00;;;;;;;;5100285;27;46440;-52
2024/04/01 06:59:07;;;;;;;;;1.67;0.00;;;;;;;;5100570;27;45306;-51
2024/04/01 07:01:32;;;;;;;;;2.00;2.00;;;;;;;;5101848;27;45322;-52
2024/04/01 07:03:57;;;;;;;;;1.67;1.67;;;;;;;;5099442;27;45318;-52
2024/04/01 07:06:23;;;;;;;;;0.00;0.00;;;;;;;;5101485;27;45458;-53
2024/04/01 07:08:48;;;;;;;;;0.33;0.33;;;;;;;;5098857;27;45289;-52
2024/04/01 07:11:13;;;;;;;;;1.00;1.00;;;;;;;;5093201;27;45472;-52
2024/04/01 07:13:38;;;;;;;;;2.67;0.67;;;;;;;;5096210;27;45341;-52
2024/04/01 07:16:03;;;;;;;;;0.00;0.00;;;;;;;;5098669;27;45407;-51
2024/04/01 07:18:30;;;;;;;;;2.00;1.00;;;;;;;;5097734;27;45364;-51
2024/04/01 07:20:55;;;;;;;;;0.67;0.00;;;;;;;;5098893;27;45521;-51
2024/04/01 07:23:20;;;;;;;;;2.33;0.00;;;;;;;;5096349;27;45284;-52
2024/04/01 07:25:46;;;;;;;;;0.00;0.00;;;;;;;;5099249;27;45299;-51
2024/04/01 07:28:12;;;;;;;;;0.67;0.00;;;;;;;;5100655;27;45809;-50
2024/04/01 07:30:37;;;;;;;;;4.00;0.33;;;;;;;;5101316;27;45430;-48
2024/04/01 07:33:03;;;;;;;;;2.67;0.00;;;;;;;;5098415;27;45430;-49
2024/04/01 07:35:28;;;;;;;;;0.00;0.00;;;;;;;;5100920;27;46452;-49
2024/04/01 07:37:54;;;;;;;;;1.67;0.67;;;;;;;;5100926;27;45280;-50
2024/04/01 07:40:19;;;;;;;;;0.00;0.00;;;;;;;;5098898;27;45370;-51
2024/04/01 07:42:45;;;;;;;;;0.67;0.67;;;;;;;;5099024;27;45238;-51
2024/04/01 07:45:11;;;;;;;;;2.00;1.00;;;;;;;;5099994;27;46202;-49
2024/04/01 07:47:36;;;;;;;;;2.00;2.00;;;;;;;;5099295;27;45295;-52
2024/04/01 07:50:01;;;;;;;;;0.00;0.00;;;;;;;;5101043;27;45320;-51
2024/04/01 07:52:26;;;;;;;;;2.00;2.00;;;;;;;;5100550;27;45298;-49
2024/04/01 07:54:52;;;;;;;;;0.00;0.00;;;;;;;;5099690;27;46344;-52
2024/04/01 07:57:17;;;;;;;;;0.00;0.00;;;;;;;;5097741;27;45251;-49
2024/04/01 07:59:43;;;;;;;;;2.00;1.00;;;;;;;;5099741;27;45522;-52
2024/04/01 08:02:09;;;;;;;;;1.00;1.00;;;;;;;;5098962;27;45277;-52
2024/04/01 08:04:34;;;;;;;;;0.67;0.67;;;;;;;;5099570;27;45378;-50
2024/04/01 08:06:59;;;;;;;;;1.00;1.00;;;;;;;;5098096;27;45300;-49
2024/04/01 08:09:24;;;;;;;;;0.00;0.00;;;;;;;;5097704;27;45362;-49
2024/04/01 08:11:50;;;;;;;;;1.00;1.00;;;;;;;;5089677;27;45398;-52
2024/04/01 08:14:16;;;;;;;;;0.00;0.00;;;;;;;;5099915;27;45427;-53
2024/04/01 08:16:44;;;;;;;;;0.00;0.00;;;;;;;;5098159;27;45188;-52
2024/04/01 08:19:10;;;;;;;;;1.00;1.00;;;;;;;;5089629;27;45497;-52
2024/04/01 08:21:35;;;;;;;;;1.00;1.00;;;;;;;;5098584;27;45293;-52
2024/04/01 08:24:00;;;;;;;;;0.33;0.33;;;;;;;;5098078;27;46335;-51
2024/04/01 08:26:26;;;;;;;;;4.00;1.00;;;;;;;;5081579;27;45362;-52
2024/04/01 08:28:51;;;;;;;;;0.67;0.67;;;;;;;;5087551;27;45349;-52
2024/04/01 08:31:16;;;;;;;;;0.67;0.67;;;;;;;;5097610;27;45317;-51
2024/04/01 08:33:41;;;;;;;;;2.67;0.00;;;;;;;;5089555;27;46252;-50
2024/04/01 08:36:07;;;;;;;;;2.00;2.00;;;;;;;;5096920;27;45352;-49
2024/04/01 08:38:32;;;;;;;;;1.67;1.67;;;;;;;;5099949;27;45305;-49
2024/04/01 08:41:00;;;;;;;;;1.33;1.33;;;;;;;;5097864;27;45460;-52
2024/04/01 08:43:38;;;;;;;;;1.67;1.67;;;;;;;;5089466;27;46829;-51
2024/04/01 08:46:04;;;;;;;;;1.00;1.00;;;;;;;;5098783;27;45629;-52
2024/04/01 08:48:30;;;;;;;;;0.00;0.00;;;;;;;;5096524;27;45381;-51
2024/04/01 08:50:57;;;;;;;;;2.33;1.00;;;;;;;;5096073;27;45372;-51
2024/04/01 08:53:41;;;;;;;;;1.00;1.00;;;;;;;;5097239;27;47168;-52
2024/04/01 08:56:07;;;;;;;;;2.67;1.00;;;;;;;;5095193;27;45746;-50
2024/04/01 08:58:32;;;;;;;;;1.67;1.00;;;;;;;;5078872;27;45326;-53
2024/04/01 09:00:57;;;;;;;;;0.33;0.00;;;;;;;;5079181;27;45346;-52
2024/04/01 09:03:22;;;;;;;;;1.67;1.00;;;;;;;;5098669;27;46317;-49
2024/04/01 09:05:48;;;;;;;;;1.33;1.33;;;;;;;;5099506;27;45836;-52
2024/04/01 09:08:13;;;;;;;;;2.00;1.33;;;;;;;;5099548;27;45291;-51
2024/04/01 09:10:38;;;;;;;;;2.00;1.33;;;;;;;;5091308;27;45489;-52
2024/04/01 09:13:03;;;;;;;;;3.00;1.00;;;;;;;;5091196;27;46441;-52
2024/04/01 09:15:29;;;;;;;;;1.00;1.00;;;;;;;;5094702;27;45407;-51
2024/04/01 09:17:55;;;;;;;;;1.00;1.00;;;;;;;;5099814;27;45805;-51
2024/04/01 09:20:20;;;;;;;;;2.00;1.00;;;;;;;;5100433;27;45417;-53
2024/04/01 09:22:45;;;;;;;;;3.00;1.67;;;;;;;;5102567;27;46133;-53
2024/04/01 09:25:11;;;;;;;;;0.33;0.00;;;;;;;;5100905;27;45446;-52
2024/04/01 09:27:36;;;;;;;;;1.00;1.00;;;;;;;;5101858;27;45183;-53
2024/04/01 09:30:01;;;;;;;;;1.00;1.00;;;;;;;;5099932;27;45275;-50
2024/04/01 09:32:27;;;;;;;;;1.00;1.00;;;;;;;;5084631;27;46403;-52
2024/04/01 09:34:58;;;;;;;;;4.67;1.33;;;;;;;;5101577;27;45240;-52
2024/04/01 09:37:24;;;;;;;;;1.67;1.67;;;;;;;;5113768;27;45330;-52
2024/04/01 09:39:51;;;;;;;;;1.00;1.00;;;;;;;;5084402;27;45492;-52
2024/04/01 09:42:16;;;;;;;;;2.00;2.00;;;;;;;;5102035;27;45378;-51
2024/04/01 09:44:41;;;;;;;;;2.00;2.00;;;;;;;;5097164;27;45334;-52
2024/04/01 09:47:07;;;;;;;;;1.00;0.67;;;;;;;;5095673;27;45229;-52
2024/04/01 09:49:34;;;;;;;;;0.33;0.33;;;;;;;;5102548;27;45379;-53
2024/04/01 09:51:59;;;;;;;;;2.00;0.00;;;;;;;;5102599;27;46252;-51
2024/04/01 09:54:25;;;;;;;;;2.00;2.00;;;;;;;;5090711;27;45706;-52
2024/04/01 09:57:16;;;;;;;;;0.33;0.33;;;;;;;;5091453;27;45157;-52
2024/04/01 10:00:09;;;;;;;;;1.00;1.00;;;;;;;;5089816;27;45430;-51
2024/04/01 10:02:43;;;;;;;;;3.67;1.33;;;;;;;;5101918;27;47014;-51
2024/04/01 10:05:11;;;;;;;;;2.00;1.00;;;;;;;;5100009;27;45947;-52
2024/04/01 10:07:49;;;;;;;;;1.00;1.00;;;;;;;;5102647;27;45550;-53
2024/04/01 10:10:23;;;;;;;;;1.33;1.33;;;;;;;;5098830;27;45495;-53
2024/04/01 10:13:07;;;;;;;;;0.00;0.00;;;;;;;;5091031;27;46366;-51
2024/04/01 10:15:41;;;;;;;;;0.33;0.33;;;;;;;;5100464;27;45309;-52
2024/04/01 10:18:26;;;;;;;;;2.33;1.00;;;;;;;;5100386;27;45295;-50
2024/04/01 10:20:51;;;;;;;;;1.00;1.00;;;;;;;;5090778;27;45473;-53
2024/04/01 10:23:35;;;;;;;;;2.25;0.75;;;;;;;;5099057;27;46274;-51
2024/04/01 10:26:19;;;;;;;;;3.33;1.00;;;;;;;;5102307;27;45310;-52
2024/04/01 10:28:47;;;;;;;;;1.00;1.00;;;;;;;;5090447;27;45283;-52
2024/04/01 10:31:36;;;;;;;;;4.00;2.33;;;;;;;;5099295;27;45471;-52
2024/04/01 10:34:19;;;;;;;;;3.00;1.00;;;;;;;;5071358;27;46861;-52
2024/04/01 10:36:44;;;;;;;;;3.67;1.00;;;;;;;;5100707;27;45386;-52
2024/04/01 10:39:13;;;;;;;;;2.25;1.00;;;;;;;;5099324;27;45564;-51
2024/04/01 10:41:41;;;;;;;;;3.00;2.00;;;;;;;;5088136;27;45600;-52
2024/04/01 10:44:19;;;;;;;;;3.00;1.67;;;;;;;;5082123;27;48059;-52
2024/04/01 10:46:50;;;;;;;;;2.00;2.00;;;;;;;;5102058;27;45615;-52
2024/04/01 10:49:21;;;;;;;;;3.00;1.33;;;;;;;;5100469;27;45410;-51
2024/04/01 10:51:58;;;;;;;;;2.00;1.67;;;;;;;;5101374;27;45654;-52
2024/04/01 10:54:27;;;;;;;;;1.33;1.33;;;;;;;;5100396;27;45292;-50
2024/04/01 10:57:11;;;;;;;;;0.67;0.67;;;;;;;;5101810;27;45236;-52
2024/04/01 10:59:51;;;;;;;;;17.00;12.00;;;;;;;;5085432;27;45574;-52
2024/04/01 11:02:38;;;;;;;;;3.00;1.67;;;;;;;;5094236;27;45321;-51
2024/04/01 11:05:22;;;;;;;;;3.00;1.00;;;;;;;;5085460;27;46599;-50
2024/04/01 11:08:04;;;;;;;;;3.67;2.00;;;;;;;;5098850;27;45248;-50
2024/04/01 11:10:29;;;;;;;;;1.67;1.33;;;;;;;;5094762;27;45410;-53
2024/04/01 11:13:03;;;;;;;;;2.67;0.00;;;;;;;;5080701;27;45309;-52
2024/04/01 11:15:28;;;;;;;;;2.00;1.00;;;;;;;;5099286;27;45419;-51
2024/04/01 11:17:57;;;;;;;;;1.00;1.00;;;;;;;;5099561;27;45324;-53
2024/04/01 11:20:39;;;;;;;;;3.00;1.00;;;;;;;;5082426;27;45455;-52
2024/04/01 11:23:23;;;;;;;;;2.00;2.00;;;;;;;;5093069;27;45340;-52
2024/04/01 11:25:58;;;;;;;;;2.00;2.00;;;;;;;;5096370;27;45517;-53
2024/04/01 11:28:43;;;;;;;;;1.67;1.67;;;;;;;;5098273;27;45419;-51
2024/04/01 11:31:18;;;;;;;;;0.00;0.00;;;;;;;;5074631;27;45278;-50
2024/04/01 11:33:57;;;;;;;;;1.00;1.00;;;;;;;;5096168;27;45482;-53
2024/04/01 11:36:44;;;;;;;;;5.00;1.00;;;;;;;;5099714;27;45488;-53
2024/04/01 11:39:13;;;;;;;;;1.00;1.00;;;;;;;;5093204;27;45486;-53
2024/04/01 11:41:41;;;;;;;;;2.00;1.00;;;;;;;;5081367;27;45381;-53
2024/04/01 11:44:07;;;;;;;;;1.67;1.67;;;;;;;;5081677;27;45646;-51
2024/04/01 11:46:32;;;;;;;;;3.00;2.00;;;;;;;;5100892;27;46043;-51
2024/04/01 11:48:57;;;;;;;;;0.00;0.00;;;;;;;;5100482;27;45342;-50
2024/04/01 11:51:35;;;;;;;;;1.00;1.00;;;;;;;;5100456;27;45333;-52
2024/04/01 11:54:01;;;;;;;;;2.50;1.00;;;;;;;;5100838;27;45557;-53
2024/04/01 11:56:39;;;;;;;;;3.25;2.00;;;;;;;;5100152;27;45935;-49
2024/04/01 11:59:11;;;;;;;;;2.00;0.75;;;;;;;;5093487;27;45381;-52
2024/04/01 12:01:39;;;;;;;;;1.00;1.00;;;;;;;;5093490;27;45503;-50
2024/04/01 12:04:04;;;;;;;;;0.00;0.00;;;;;;;;5091405;27;45539;-51
2024/04/01 12:06:30;;;;;;;;;0.75;0.00;;;;;;;;5100384;27;46333;-52
2024/04/01 12:08:57;;;;;;;;;0.50;0.50;;;;;;;;5098017;27;45599;-53
2024/04/01 12:11:22;;;;;;;;;1.75;1.00;;;;;;;;5090688;27;45484;-53
2024/04/01 12:13:48;;;;;;;;;1.00;0.00;;;;;;;;5098892;27;45232;-52
2024/04/01 12:16:14;;;;;;;;;0.00;0.00;;;;;;;;5097065;27;46386;-52
2024/04/01 12:18:47;;;;;;;;;2.00;0.00;;;;;;;;5097239;27;45470;-50
2024/04/01 12:21:15;;;;;;;;;0.00;0.00;;;;;;;;5098239;27;45401;-50
2024/04/01 12:23:42;;;;;;;;;1.00;0.00;;;;;;;;5096722;27;45333;-52
2024/04/01 12:26:09;;;;;;;;;1.00;0.00;;;;;;;;5099785;27;45491;-51
2024/04/01 12:28:35;;;;;;;;;0.00;0.00;;;;;;;;5099962;27;45419;-50
2024/04/01 12:31:01;;;;;;;;;0.00;0.00;;;;;;;;5099028;27;45437;-49
2024/04/01 12:33:27;;;;;;;;;2.00;0.50;;;;;;;;5098928;27;45381;-50
2024/04/01 12:35:54;;;;;;;;;0.00;0.00;;;;;;;;5099072;27;46439;-49
2024/04/01 12:38:21;;;;;;;;;0.50;0.50;;;;;;;;5099383;27;45504;-52
2024/04/01 12:40:49;;;;;;;;;1.00;1.00;;;;;;;;5099457;27;45350;-50
2024/04/01 12:43:15;;;;;;;;;1.25;1.00;;;;;;;;5098429;27;45471;-53
2024/04/01 12:45:41;;;;;;;;;1.00;1.00;;;;;;;;5098912;27;45472;-52
2024/04/01 12:48:11;;;;;;;;;2.00;1.00;;;;;;;;5098354;27;45266;-52
2024/04/01 12:50:36;;;;;;;;;1.00;1.00;;;;;;;;5099313;27;45546;-50
2024/04/01 12:53:25;;;;;;;;;0.00;0.00;;;;;;;;5098066;27;45267;-51
2024/04/01 12:55:54;;;;;;;;;1.00;1.00;;;;;;;;5098471;27;47207;-52
2024/04/01 12:58:32;;;;;;;;;1.00;1.00;;;;;;;;5098691;27;45329;-53
2024/04/01 13:01:04;;;;;;;;;0.00;0.00;;;;;;;;5098081;27;45590;-50
2024/04/01 13:03:41;;;;;;;;;0.00;0.00;;;;;;;;5099585;27;45600;-53
2024/04/01 13:06:06;;;;;;;;;0.00;0.00;;;;;;;;5098181;27;46689;-49
2024/04/01 13:08:44;;;;;;;;;0.25;0.00;;;;;;;;5099840;27;45474;-53
2024/04/01 13:11:28;;;;;;;;;0.00;0.00;;;;;;;;5099457;27;45237;-52
2024/04/01 13:14:15;;;;;;;;;0.00;0.00;;;;;;;;5099645;27;45436;-53
2024/04/01 13:17:00;;;;;;;;;0.75;0.50;;;;;;;;5094883;27;47304;-53
2024/04/01 13:19:25;;;;;;;;;0.00;0.00;;;;;;;;5079272;27;45251;-53
2024/04/01 13:22:03;;;;;;;;;1.50;1.00;;;;;;;;5098090;27;45649;-56
2024/04/01 13:24:30;;;;;;;;;1.25;1.00;;;;;;;;5099636;27;45321;-52
2024/04/01 13:26:58;;;;;;;;;1.00;0.00;;;;;;;;5076609;27;47464;-52
2024/04/01 13:29:34;;;;;;;;;0.75;0.75;;;;;;;;5096700;27;45347;-50
2024/04/01 13:32:06;;;;;;;;;1.75;0.75;;;;;;;;5097859;27;45180;-50
2024/04/01 13:34:43;;;;;;;;;1.00;1.00;;;;;;;;5095650;27;45431;-53
2024/04/01 13:37:28;;;;;;;;;0.00;0.00;;;;;;;;5097294;27;46284;-52
2024/04/01 13:40:00;;;;;;;;;1.25;0.75;;;;;;;;5095745;27;45349;-50
2024/04/01 13:42:41;;;;;;;;;0.00;0.00;;;;;;;;5079903;27;45758;-51
2024/04/01 13:45:24;;;;;;;;;0.00;0.00;;;;;;;;5062427;28;45527;-50
2024/04/01 13:48:07;;;;;;;;;0.67;0.00;;;;;;;;5096500;27;46510;-52
2024/04/01 13:50:38;;;;;;;;;0.00;0.00;;;;;;;;5096752;27;45252;-51
2024/04/01 13:53:14;;;;;;;;;0.00;0.00;;;;;;;;5097551;27;45441;-50
2024/04/01 13:55:40;;;;;;;;;2.00;0.00;;;;;;;;5097847;27;45334;-51
2024/04/01 13:58:11;;;;;;;;;2.00;1.00;;;;;;;;5098185;27;46768;-52
2024/04/01 14:01:02;;;;;;;;;0.33;0.00;;;;;;;;5098300;27;45301;-51
2024/04/01 14:03:45;;;;;;;;;1.67;0.00;;;;;;;;5098940;27;45405;-52
2024/04/01 14:06:37;;;;;;;;;0.00;0.00;;;;;;;;5101380;27;45446;-50
2024/04/01 14:09:06;;;;;;;;;0.00;0.00;;;;;;;;5099559;27;45525;-52
2024/04/01 14:11:43;;;;;;;;;0.00;0.00;;;;;;;;5100072;27;46098;-52
2024/04/01 14:14:23;;;;;;;;;2.00;0.00;;;;;;;;5099785;27;45489;-52
2024/04/01 14:16:58;;;;;;;;;0.00;0.00;;;;;;;;5099748;27;45566;-50
2024/04/01 14:19:23;;;;;;;;;0.00;0.00;;;;;;;;5101521;27;46171;-52
2024/04/01 14:21:48;;;;;;;;;0.00;0.00;;;;;;;;5098535;27;45264;-51
2024/04/01 14:24:14;;;;;;;;;0.00;0.00;;;;;;;;5099766;27;45489;-52
2024/04/01 14:26:41;;;;;;;;;0.00;0.00;;;;;;;;5081459;27;45395;-51
2024/04/01 14:29:06;;;;;;;;;0.67;0.00;;;;;;;;5099411;27;46655;-50
2024/04/01 14:31:31;;;;;;;;;0.00;0.00;;;;;;;;5099611;27;45369;-52
2024/04/01 14:33:57;;;;;;;;;0.00;0.00;;;;;;;;5102121;27;45445;-51
2024/04/01 14:36:23;;;;;;;;;0.67;0.00;;;;;;;;5099383;27;45880;-51
2024/04/01 14:38:49;;;;;;;;;3.33;1.00;;;;;;;;5102237;27;46212;-52
2024/04/01 14:41:14;;;;;;;;;0.00;0.00;;;;;;;;5082687;27;45998;-50
2024/04/01 14:43:40;;;;;;;;;0.00;0.00;;;;;;;;5101980;27;45361;-50
2024/04/01 14:46:05;;;;;;;;;0.00;0.00;;;;;;;;5099419;27;45320;-51
2024/04/01 14:48:31;;;;;;;;;1.00;0.00;;;;;;;;5101707;27;46824;-51